LRSV/SCV METAR and TAF weather

Enter ICAO airport designator
Station Type Date Time Source
LRSV METAR 2020/08/06 00:00 UTC NOAA

LRSV 060000Z 33008KT CAVOK 21/11 Q1018


Station Type Date Time Source
LRSV Decoded METAR 2020/08/06 00:00 UTC NOAA

Suceava / Salcea, Romania (LRSV) 47-39N 026-15E 351M
Aug 05, 2020 - 08:00 PM EDT / 2020.08.06 0000 UTC
Wind: from the NNW (330 degrees) at 9 MPH (8 KT):0
Visibility: greater than 7 mile(s):0
Temperature: 69 F (21 C)
Dew Point: 51 F (11 C)
Relative Humidity: 52%
Pressure (altimeter): 30.06 in. Hg (1018 hPa)
ob: LRSV 060000Z 33008KT CAVOK 21/11 Q1018
cycle: 0

Station Type Date Time Source
LRSV TAF 2014/07/19 18:48 UTC NOAA

TAF LRSV 191800Z 1918/2024 CNL

Example: see airport list